sensor_id;sensor_type;location;lat;lon;timestamp;P1;durP1;ratioP1;P2;durP2;ratioP2
16766;SDS011;8501;49.926;8.404;2023-08-06T00:01:49;6.50;;;5.30;;
16766;SDS011;8501;49.926;8.404;2023-08-06T00:04:15;6.50;;;5.50;;
16766;SDS011;8501;49.926;8.404;2023-08-06T00:06:40;6.28;;;5.63;;
16766;SDS011;8501;49.926;8.404;2023-08-06T00:09:06;6.10;;;5.28;;
16766;SDS011;8501;49.926;8.404;2023-08-06T00:11:32;7.97;;;5.85;;
16766;SDS011;8501;49.926;8.404;2023-08-06T00:13:57;6.32;;;5.13;;
16766;SDS011;8501;49.926;8.404;2023-08-06T00:16:23;5.93;;;5.05;;
16766;SDS011;8501;49.926;8.404;2023-08-06T00:18:48;6.65;;;5.25;;
16766;SDS011;8501;49.926;8.404;2023-08-06T00:21:14;6.93;;;5.55;;
16766;SDS011;8501;49.926;8.404;2023-08-06T00:23:40;6.78;;;5.60;;
16766;SDS011;8501;49.926;8.404;2023-08-06T00:26:06;7.20;;;5.50;;
16766;SDS011;8501;49.926;8.404;2023-08-06T00:28:31;6.80;;;5.43;;
16766;SDS011;8501;49.926;8.404;2023-08-06T00:30:57;6.90;;;5.43;;
16766;SDS011;8501;49.926;8.404;2023-08-06T00:33:23;5.75;;;5.15;;
16766;SDS011;8501;49.926;8.404;2023-08-06T00:35:49;7.55;;;5.22;;
16766;SDS011;8501;49.926;8.404;2023-08-06T00:38:14;6.25;;;5.07;;
16766;SDS011;8501;49.926;8.404;2023-08-06T00:40:40;5.80;;;5.00;;
16766;SDS011;8501;49.926;8.404;2023-08-06T00:43:06;6.30;;;5.13;;
16766;SDS011;8501;49.926;8.404;2023-08-06T00:45:33;8.05;;;5.18;;
16766;SDS011;8501;49.926;8.404;2023-08-06T00:48:00;8.50;;;5.45;;
16766;SDS011;8501;49.926;8.404;2023-08-06T00:50:26;6.10;;;4.75;;
16766;SDS011;8501;49.926;8.404;2023-08-06T00:52:52;6.78;;;5.35;;
16766;SDS011;8501;49.926;8.404;2023-08-06T00:55:19;8.75;;;5.45;;
16766;SDS011;8501;49.926;8.404;2023-08-06T00:57:44;7.30;;;5.40;;
16766;SDS011;8501;49.926;8.404;2023-08-06T01:00:10;6.93;;;5.07;;
16766;SDS011;8501;49.926;8.404;2023-08-06T01:02:36;6.07;;;4.97;;
16766;SDS011;8501;49.926;8.404;2023-08-06T01:05:02;5.57;;;4.95;;
16766;SDS011;8501;49.926;8.404;2023-08-06T01:13:14;5.82;;;4.90;;
16766;SDS011;8501;49.926;8.404;2023-08-06T01:15:56;9.00;;;5.60;;
16766;SDS011;8501;49.926;8.404;2023-08-06T01:18:24;7.70;;;5.47;;
16766;SDS011;8501;49.926;8.404;2023-08-06T01:20:51;9.25;;;5.55;;
16766;SDS011;8501;49.926;8.404;2023-08-06T01:23:16;6.93;;;5.65;;
16766;SDS011;8501;49.926;8.404;2023-08-06T01:25:49;7.50;;;5.40;;
16766;SDS011;8501;49.926;8.404;2023-08-06T01:28:21;6.57;;;5.55;;
16766;SDS011;8501;49.926;8.404;2023-08-06T01:30:52;6.70;;;5.40;;
16766;SDS011;8501;49.926;8.404;2023-08-06T01:33:21;8.48;;;6.00;;
16766;SDS011;8501;49.926;8.404;2023-08-06T01:35:48;7.68;;;6.00;;
16766;SDS011;8501;49.926;8.404;2023-08-06T01:38:14;6.68;;;5.45;;
16766;SDS011;8501;49.926;8.404;2023-08-06T01:40:40;7.57;;;5.88;;
16766;SDS011;8501;49.926;8.404;2023-08-06T01:43:06;7.72;;;5.80;;
16766;SDS011;8501;49.926;8.404;2023-08-06T01:45:32;6.38;;;5.45;;
16766;SDS011;8501;49.926;8.404;2023-08-06T01:47:57;10.20;;;6.28;;
16766;SDS011;8501;49.926;8.404;2023-08-06T01:50:23;8.77;;;6.05;;
16766;SDS011;8501;49.926;8.404;2023-08-06T01:52:48;6.85;;;5.60;;
16766;SDS011;8501;49.926;8.404;2023-08-06T01:55:14;9.63;;;6.03;;
16766;SDS011;8501;49.926;8.404;2023-08-06T01:57:39;10.38;;;5.75;;
16766;SDS011;8501;49.926;8.404;2023-08-06T02:00:05;10.38;;;6.28;;
16766;SDS011;8501;49.926;8.404;2023-08-06T02:02:31;7.68;;;5.70;;
16766;SDS011;8501;49.926;8.404;2023-08-06T02:04:58;8.52;;;5.47;;
16766;SDS011;8501;49.926;8.404;2023-08-06T02:07:24;7.85;;;5.25;;
16766;SDS011;8501;49.926;8.404;2023-08-06T02:09:49;8.18;;;5.25;;
16766;SDS011;8501;49.926;8.404;2023-08-06T02:12:15;7.80;;;5.20;;
16766;SDS011;8501;49.926;8.404;2023-08-06T02:14:40;8.73;;;6.13;;
16766;SDS011;8501;49.926;8.404;2023-08-06T02:17:06;8.80;;;5.45;;
16766;SDS011;8501;49.926;8.404;2023-08-06T02:19:31;8.30;;;5.22;;
16766;SDS011;8501;49.926;8.404;2023-08-06T02:21:57;6.72;;;5.10;;
16766;SDS011;8501;49.926;8.404;2023-08-06T02:24:22;8.02;;;5.45;;
16766;SDS011;8501;49.926;8.404;2023-08-06T02:26:48;7.80;;;5.20;;
16766;SDS011;8501;49.926;8.404;2023-08-06T02:29:15;6.72;;;4.88;;
16766;SDS011;8501;49.926;8.404;2023-08-06T02:31:42;6.50;;;5.13;;
16766;SDS011;8501;49.926;8.404;2023-08-06T02:34:07;6.15;;;4.75;;
16766;SDS011;8501;49.926;8.404;2023-08-06T02:36:33;6.65;;;4.50;;
16766;SDS011;8501;49.926;8.404;2023-08-06T02:38:58;8.85;;;5.20;;
16766;SDS011;8501;49.926;8.404;2023-08-06T02:41:24;5.88;;;4.75;;
16766;SDS011;8501;49.926;8.404;2023-08-06T02:43:49;6.32;;;4.30;;
16766;SDS011;8501;49.926;8.404;2023-08-06T02:46:15;6.25;;;4.20;;
16766;SDS011;8501;49.926;8.404;2023-08-06T02:48:40;5.75;;;4.30;;
16766;SDS011;8501;49.926;8.404;2023-08-06T02:51:06;8.82;;;4.00;;
16766;SDS011;8501;49.926;8.404;2023-08-06T02:53:31;5.70;;;4.03;;
16766;SDS011;8501;49.926;8.404;2023-08-06T02:55:57;7.68;;;4.57;;
16766;SDS011;8501;49.926;8.404;2023-08-06T02:58:23;5.85;;;4.13;;
16766;SDS011;8501;49.926;8.404;2023-08-06T03:01:05;5.35;;;3.90;;
16766;SDS011;8501;49.926;8.404;2023-08-06T03:03:32;5.25;;;4.35;;
16766;SDS011;8501;49.926;8.404;2023-08-06T03:05:58;5.78;;;4.40;;
16766;SDS011;8501;49.926;8.404;2023-08-06T03:08:24;6.43;;;4.30;;
16766;SDS011;8501;49.926;8.404;2023-08-06T03:10:50;7.05;;;4.38;;
16766;SDS011;8501;49.926;8.404;2023-08-06T03:13:19;6.88;;;4.18;;
16766;SDS011;8501;49.926;8.404;2023-08-06T03:18:23;7.82;;;4.15;;
16766;SDS011;8501;49.926;8.404;2023-08-06T03:20:49;4.88;;;4.00;;
16766;SDS011;8501;49.926;8.404;2023-08-06T03:23:15;5.47;;;4.00;;
16766;SDS011;8501;49.926;8.404;2023-08-06T03:25:40;6.88;;;4.07;;
16766;SDS011;8501;49.926;8.404;2023-08-06T03:28:06;5.03;;;3.70;;
16766;SDS011;8501;49.926;8.404;2023-08-06T03:30:31;8.02;;;3.92;;
16766;SDS011;8501;49.926;8.404;2023-08-06T03:32:57;6.60;;;3.60;;
16766;SDS011;8501;49.926;8.404;2023-08-06T03:35:22;4.70;;;3.50;;
16766;SDS011;8501;49.926;8.404;2023-08-06T03:37:48;4.70;;;3.20;;
16766;SDS011;8501;49.926;8.404;2023-08-06T03:40:14;3.83;;;3.20;;
16766;SDS011;8501;49.926;8.404;2023-08-06T03:42:40;4.32;;;3.30;;
16766;SDS011;8501;49.926;8.404;2023-08-06T03:45:06;6.03;;;3.08;;
16766;SDS011;8501;49.926;8.404;2023-08-06T03:47:32;4.70;;;3.13;;
16766;SDS011;8501;49.926;8.404;2023-08-06T03:49:58;4.95;;;3.30;;
16766;SDS011;8501;49.926;8.404;2023-08-06T03:52:23;4.18;;;3.30;;
16766;SDS011;8501;49.926;8.404;2023-08-06T03:54:49;5.00;;;3.00;;
16766;SDS011;8501;49.926;8.404;2023-08-06T03:57:14;4.15;;;2.70;;
16766;SDS011;8501;49.926;8.404;2023-08-06T03:59:40;5.78;;;2.95;;
16766;SDS011;8501;49.926;8.404;2023-08-06T04:02:06;4.28;;;2.42;;
16766;SDS011;8501;49.926;8.404;2023-08-06T04:04:31;5.15;;;2.33;;
16766;SDS011;8501;49.926;8.404;2023-08-06T04:06:57;3.97;;;2.30;;
16766;SDS011;8501;49.926;8.404;2023-08-06T04:09:22;2.80;;;1.92;;
16766;SDS011;8501;49.926;8.404;2023-08-06T04:11:48;2.72;;;1.48;;
16766;SDS011;8501;49.926;8.404;2023-08-06T04:14:13;3.38;;;1.60;;
16766;SDS011;8501;49.926;8.404;2023-08-06T04:16:39;4.22;;;1.55;;
16766;SDS011;8501;49.926;8.404;2023-08-06T04:19:04;4.50;;;1.75;;
16766;SDS011;8501;49.926;8.404;2023-08-06T04:21:30;4.18;;;1.60;;
16766;SDS011;8501;49.926;8.404;2023-08-06T04:23:56;2.33;;;1.50;;
16766;SDS011;8501;49.926;8.404;2023-08-06T04:26:21;4.47;;;1.50;;
16766;SDS011;8501;49.926;8.404;2023-08-06T04:28:47;3.72;;;1.20;;
16766;SDS011;8501;49.926;8.404;2023-08-06T04:31:13;3.20;;;1.50;;
16766;SDS011;8501;49.926;8.404;2023-08-06T04:33:39;1.55;;;1.30;;
16766;SDS011;8501;49.926;8.404;2023-08-06T04:36:05;2.88;;;1.42;;
16766;SDS011;8501;49.926;8.404;2023-08-06T04:38:31;3.03;;;1.45;;
16766;SDS011;8501;49.926;8.404;2023-08-06T04:40:57;2.65;;;1.40;;
16766;SDS011;8501;49.926;8.404;2023-08-06T04:43:23;1.83;;;1.30;;
16766;SDS011;8501;49.926;8.404;2023-08-06T04:45:49;2.28;;;1.50;;
16766;SDS011;8501;49.926;8.404;2023-08-06T04:48:15;4.93;;;1.48;;
16766;SDS011;8501;49.926;8.404;2023-08-06T04:50:48;2.67;;;1.60;;
16766;SDS011;8501;49.926;8.404;2023-08-06T04:53:14;3.15;;;1.52;;
16766;SDS011;8501;49.926;8.404;2023-08-06T04:55:40;3.00;;;1.60;;
16766;SDS011;8501;49.926;8.404;2023-08-06T04:58:06;3.78;;;1.77;;
16766;SDS011;8501;49.926;8.404;2023-08-06T05:00:32;3.42;;;1.58;;
16766;SDS011;8501;49.926;8.404;2023-08-06T05:03:01;3.38;;;1.88;;
16766;SDS011;8501;49.926;8.404;2023-08-06T05:05:27;3.40;;;2.10;;
16766;SDS011;8501;49.926;8.404;2023-08-06T05:07:54;3.30;;;1.77;;
16766;SDS011;8501;49.926;8.404;2023-08-06T05:10:20;3.13;;;1.67;;
16766;SDS011;8501;49.926;8.404;2023-08-06T05:12:46;2.00;;;1.48;;
16766;SDS011;8501;49.926;8.404;2023-08-06T05:15:12;2.63;;;1.67;;
16766;SDS011;8501;49.926;8.404;2023-08-06T05:17:37;2.75;;;1.60;;
16766;SDS011;8501;49.926;8.404;2023-08-06T05:20:03;2.80;;;1.50;;
16766;SDS011;8501;49.926;8.404;2023-08-06T05:22:29;2.38;;;1.48;;
16766;SDS011;8501;49.926;8.404;2023-08-06T05:24:54;3.75;;;1.60;;
16766;SDS011;8501;49.926;8.404;2023-08-06T05:27:20;2.83;;;1.30;;
16766;SDS011;8501;49.926;8.404;2023-08-06T05:29:45;2.58;;;1.33;;
16766;SDS011;8501;49.926;8.404;2023-08-06T05:32:13;2.88;;;1.60;;
16766;SDS011;8501;49.926;8.404;2023-08-06T05:34:38;1.10;;;1.00;;
16766;SDS011;8501;49.926;8.404;2023-08-06T05:37:04;1.48;;;1.15;;
16766;SDS011;8501;49.926;8.404;2023-08-06T05:39:30;2.30;;;0.90;;
16766;SDS011;8501;49.926;8.404;2023-08-06T05:41:55;1.20;;;0.98;;
16766;SDS011;8501;49.926;8.404;2023-08-06T05:44:21;0.70;;;0.60;;
16766;SDS011;8501;49.926;8.404;2023-08-06T05:46:48;0.88;;;0.68;;
16766;SDS011;8501;49.926;8.404;2023-08-06T05:49:14;2.22;;;0.60;;
16766;SDS011;8501;49.926;8.404;2023-08-06T05:51:40;1.83;;;0.73;;
16766;SDS011;8501;49.926;8.404;2023-08-06T05:54:05;2.80;;;0.70;;
16766;SDS011;8501;49.926;8.404;2023-08-06T05:56:31;0.50;;;0.50;;
16766;SDS011;8501;49.926;8.404;2023-08-06T05:58:56;0.98;;;0.40;;
16766;SDS011;8501;49.926;8.404;2023-08-06T06:01:22;0.80;;;0.70;;
16766;SDS011;8501;49.926;8.404;2023-08-06T06:03:48;0.95;;;0.52;;
16766;SDS011;8501;49.926;8.404;2023-08-06T06:06:13;0.77;;;0.43;;
16766;SDS011;8501;49.926;8.404;2023-08-06T06:08:39;2.05;;;0.60;;
16766;SDS011;8501;49.926;8.404;2023-08-06T06:11:05;3.47;;;0.70;;
16766;SDS011;8501;49.926;8.404;2023-08-06T06:13:31;0.60;;;0.60;;
16766;SDS011;8501;49.926;8.404;2023-08-06T06:15:56;0.65;;;0.60;;
16766;SDS011;8501;49.926;8.404;2023-08-06T06:18:22;1.42;;;0.70;;
16766;SDS011;8501;49.926;8.404;2023-08-06T06:20:47;0.90;;;0.63;;
16766;SDS011;8501;49.926;8.404;2023-08-06T06:23:13;1.08;;;0.65;;
16766;SDS011;8501;49.926;8.404;2023-08-06T06:25:46;1.85;;;0.77;;
16766;SDS011;8501;49.926;8.404;2023-08-06T06:28:13;1.20;;;0.68;;
16766;SDS011;8501;49.926;8.404;2023-08-06T06:30:38;1.42;;;0.75;;
16766;SDS011;8501;49.926;8.404;2023-08-06T06:33:05;0.80;;;0.50;;
16766;SDS011;8501;49.926;8.404;2023-08-06T06:35:31;1.08;;;0.60;;
16766;SDS011;8501;49.926;8.404;2023-08-06T06:37:56;0.80;;;0.50;;
16766;SDS011;8501;49.926;8.404;2023-08-06T06:40:22;2.05;;;0.60;;
16766;SDS011;8501;49.926;8.404;2023-08-06T06:42:47;0.93;;;0.50;;
16766;SDS011;8501;49.926;8.404;2023-08-06T06:45:13;0.50;;;0.50;;
16766;SDS011;8501;49.926;8.404;2023-08-06T06:47:39;0.60;;;0.47;;
16766;SDS011;8501;49.926;8.404;2023-08-06T06:50:05;0.73;;;0.60;;
16766;SDS011;8501;49.926;8.404;2023-08-06T06:52:32;0.77;;;0.75;;
16766;SDS011;8501;49.926;8.404;2023-08-06T06:54:57;0.70;;;0.60;;
16766;SDS011;8501;49.926;8.404;2023-08-06T06:57:23;0.77;;;0.70;;
16766;SDS011;8501;49.926;8.404;2023-08-06T06:59:49;1.05;;;0.70;;
16766;SDS011;8501;49.926;8.404;2023-08-06T07:02:14;1.17;;;0.52;;
16766;SDS011;8501;49.926;8.404;2023-08-06T07:04:40;0.68;;;0.50;;
16766;SDS011;8501;49.926;8.404;2023-08-06T07:07:05;1.50;;;0.68;;
16766;SDS011;8501;49.926;8.404;2023-08-06T07:09:31;1.42;;;0.80;;
16766;SDS011;8501;49.926;8.404;2023-08-06T07:11:57;1.55;;;0.60;;
16766;SDS011;8501;49.926;8.404;2023-08-06T07:14:24;0.60;;;0.60;;
16766;SDS011;8501;49.926;8.404;2023-08-06T07:16:50;0.80;;;0.60;;
16766;SDS011;8501;49.926;8.404;2023-08-06T07:19:16;1.98;;;0.70;;
16766;SDS011;8501;49.926;8.404;2023-08-06T07:21:42;0.82;;;0.60;;
16766;SDS011;8501;49.926;8.404;2023-08-06T07:24:07;0.98;;;0.60;;
16766;SDS011;8501;49.926;8.404;2023-08-06T07:26:34;1.00;;;0.60;;
16766;SDS011;8501;49.926;8.404;2023-08-06T07:29:00;1.70;;;0.60;;
16766;SDS011;8501;49.926;8.404;2023-08-06T07:31:26;1.60;;;0.70;;
16766;SDS011;8501;49.926;8.404;2023-08-06T07:33:51;0.80;;;0.60;;
16766;SDS011;8501;49.926;8.404;2023-08-06T07:36:17;1.83;;;0.60;;
16766;SDS011;8501;49.926;8.404;2023-08-06T07:38:43;2.00;;;0.80;;
16766;SDS011;8501;49.926;8.404;2023-08-06T07:41:08;1.17;;;0.60;;
16766;SDS011;8501;49.926;8.404;2023-08-06T07:43:34;1.90;;;0.70;;
16766;SDS011;8501;49.926;8.404;2023-08-06T07:46:03;0.80;;;0.80;;
16766;SDS011;8501;49.926;8.404;2023-08-06T07:48:29;0.70;;;0.60;;
16766;SDS011;8501;49.926;8.404;2023-08-06T07:50:54;0.88;;;0.88;;
16766;SDS011;8501;49.926;8.404;2023-08-06T07:53:21;2.50;;;0.85;;
16766;SDS011;8501;49.926;8.404;2023-08-06T07:55:48;1.00;;;0.85;;
16766;SDS011;8501;49.926;8.404;2023-08-06T07:58:15;1.38;;;0.80;;
16766;SDS011;8501;49.926;8.404;2023-08-06T08:00:41;1.38;;;0.80;;
16766;SDS011;8501;49.926;8.404;2023-08-06T08:03:10;0.75;;;0.60;;
16766;SDS011;8501;49.926;8.404;2023-08-06T08:05:35;2.25;;;1.05;;
16766;SDS011;8501;49.926;8.404;2023-08-06T08:08:01;1.08;;;0.73;;
16766;SDS011;8501;49.926;8.404;2023-08-06T08:10:27;1.75;;;1.00;;
16766;SDS011;8501;49.926;8.404;2023-08-06T08:12:52;1.05;;;0.93;;
16766;SDS011;8501;49.926;8.404;2023-08-06T08:15:18;1.38;;;1.00;;
16766;SDS011;8501;49.926;8.404;2023-08-06T08:17:43;1.40;;;1.15;;
16766;SDS011;8501;49.926;8.404;2023-08-06T08:20:09;1.70;;;1.00;;
16766;SDS011;8501;49.926;8.404;2023-08-06T08:22:35;2.00;;;0.93;;
16766;SDS011;8501;49.926;8.404;2023-08-06T08:25:00;1.00;;;0.90;;
16766;SDS011;8501;49.926;8.404;2023-08-06T08:27:26;1.17;;;0.80;;
16766;SDS011;8501;49.926;8.404;2023-08-06T08:29:51;1.45;;;1.17;;
16766;SDS011;8501;49.926;8.404;2023-08-06T08:32:17;1.60;;;0.90;;
16766;SDS011;8501;49.926;8.404;2023-08-06T08:34:42;1.08;;;0.98;;
16766;SDS011;8501;49.926;8.404;2023-08-06T08:37:09;1.63;;;1.02;;
16766;SDS011;8501;49.926;8.404;2023-08-06T08:39:34;0.80;;;0.80;;
16766;SDS011;8501;49.926;8.404;2023-08-06T08:42:00;1.38;;;0.68;;
16766;SDS011;8501;49.926;8.404;2023-08-06T08:44:27;0.85;;;0.85;;
16766;SDS011;8501;49.926;8.404;2023-08-06T08:46:54;1.20;;;0.95;;
16766;SDS011;8501;49.926;8.404;2023-08-06T08:49:21;1.25;;;0.90;;
16766;SDS011;8501;49.926;8.404;2023-08-06T08:51:49;0.82;;;0.80;;
16766;SDS011;8501;49.926;8.404;2023-08-06T08:54:17;1.55;;;0.82;;
16766;SDS011;8501;49.926;8.404;2023-08-06T08:56:45;1.00;;;0.80;;
16766;SDS011;8501;49.926;8.404;2023-08-06T08:59:11;1.50;;;0.90;;
16766;SDS011;8501;49.926;8.404;2023-08-06T09:01:37;0.80;;;0.80;;
16766;SDS011;8501;49.926;8.404;2023-08-06T09:04:05;0.93;;;0.80;;
16766;SDS011;8501;49.926;8.404;2023-08-06T09:06:32;1.73;;;0.80;;
16766;SDS011;8501;49.926;8.404;2023-08-06T09:09:06;1.42;;;0.63;;
16766;SDS011;8501;49.926;8.404;2023-08-06T09:11:35;0.75;;;0.60;;
16766;SDS011;8501;49.926;8.404;2023-08-06T09:14:07;0.98;;;0.68;;
16766;SDS011;8501;49.926;8.404;2023-08-06T09:16:37;0.60;;;0.60;;
16766;SDS011;8501;49.926;8.404;2023-08-06T09:19:13;0.98;;;0.80;;
16766;SDS011;8501;49.926;8.404;2023-08-06T09:21:40;0.60;;;0.60;;
16766;SDS011;8501;49.926;8.404;2023-08-06T09:24:07;0.60;;;0.60;;
16766;SDS011;8501;49.926;8.404;2023-08-06T09:26:34;0.75;;;0.73;;
16766;SDS011;8501;49.926;8.404;2023-08-06T09:29:00;0.73;;;0.70;;
16766;SDS011;8501;49.926;8.404;2023-08-06T09:31:32;1.52;;;0.98;;
16766;SDS011;8501;49.926;8.404;2023-08-06T09:34:11;0.90;;;0.73;;
16766;SDS011;8501;49.926;8.404;2023-08-06T09:36:40;1.63;;;0.85;;
16766;SDS011;8501;49.926;8.404;2023-08-06T09:39:13;1.75;;;0.60;;
16766;SDS011;8501;49.926;8.404;2023-08-06T09:41:40;0.80;;;0.80;;
16766;SDS011;8501;49.926;8.404;2023-08-06T09:44:11;0.95;;;0.70;;
16766;SDS011;8501;49.926;8.404;2023-08-06T09:46:40;1.88;;;0.80;;
16766;SDS011;8501;49.926;8.404;2023-08-06T09:49:06;0.90;;;0.60;;
16766;SDS011;8501;49.926;8.404;2023-08-06T09:51:33;0.88;;;0.80;;
16766;SDS011;8501;49.926;8.404;2023-08-06T09:53:59;1.25;;;0.70;;
16766;SDS011;8501;49.926;8.404;2023-08-06T09:56:26;1.00;;;0.80;;
16766;SDS011;8501;49.926;8.404;2023-08-06T09:58:53;0.60;;;0.60;;
16766;SDS011;8501;49.926;8.404;2023-08-06T10:01:20;0.70;;;0.70;;
16766;SDS011;8501;49.926;8.404;2023-08-06T10:03:47;0.60;;;0.60;;
16766;SDS011;8501;49.926;8.404;2023-08-06T10:06:14;0.95;;;0.50;;
16766;SDS011;8501;49.926;8.404;2023-08-06T10:08:40;0.73;;;0.70;;
16766;SDS011;8501;49.926;8.404;2023-08-06T10:11:07;0.60;;;0.60;;
16766;SDS011;8501;49.926;8.404;2023-08-06T10:13:33;0.50;;;0.50;;
16766;SDS011;8501;49.926;8.404;2023-08-06T10:15:59;1.30;;;0.63;;
16766;SDS011;8501;49.926;8.404;2023-08-06T10:18:27;0.60;;;0.60;;
16766;SDS011;8501;49.926;8.404;2023-08-06T10:20:53;0.90;;;0.68;;
16766;SDS011;8501;49.926;8.404;2023-08-06T10:23:19;0.80;;;0.60;;
16766;SDS011;8501;49.926;8.404;2023-08-06T10:25:46;0.60;;;0.60;;
16766;SDS011;8501;49.926;8.404;2023-08-06T10:28:20;1.45;;;0.55;;
16766;SDS011;8501;49.926;8.404;2023-08-06T10:30:46;1.17;;;0.50;;
16766;SDS011;8501;49.926;8.404;2023-08-06T10:33:12;1.02;;;0.60;;
16766;SDS011;8501;49.926;8.404;2023-08-06T10:35:42;0.50;;;0.50;;
16766;SDS011;8501;49.926;8.404;2023-08-06T10:38:10;0.57;;;0.50;;
16766;SDS011;8501;49.926;8.404;2023-08-06T10:40:40;0.52;;;0.52;;
16766;SDS011;8501;49.926;8.404;2023-08-06T10:43:07;0.50;;;0.50;;
16766;SDS011;8501;49.926;8.404;2023-08-06T10:45:38;0.60;;;0.47;;
16766;SDS011;8501;49.926;8.404;2023-08-06T10:48:20;1.20;;;0.50;;
16766;SDS011;8501;49.926;8.404;2023-08-06T10:50:59;1.17;;;0.40;;
16766;SDS011;8501;49.926;8.404;2023-08-06T10:53:25;2.25;;;0.63;;
16766;SDS011;8501;49.926;8.404;2023-08-06T10:55:51;0.93;;;0.50;;
16766;SDS011;8501;49.926;8.404;2023-08-06T10:58:17;0.57;;;0.57;;
16766;SDS011;8501;49.926;8.404;2023-08-06T11:00:42;0.75;;;0.40;;
16766;SDS011;8501;49.926;8.404;2023-08-06T11:03:08;0.85;;;0.50;;
16766;SDS011;8501;49.926;8.404;2023-08-06T11:05:34;1.02;;;0.40;;
16766;SDS011;8501;49.926;8.404;2023-08-06T11:08:00;0.30;;;0.30;;
16766;SDS011;8501;49.926;8.404;2023-08-06T11:10:26;0.43;;;0.28;;
16766;SDS011;8501;49.926;8.404;2023-08-06T11:12:51;1.05;;;0.30;;
16766;SDS011;8501;49.926;8.404;2023-08-06T11:15:19;0.47;;;0.40;;
16766;SDS011;8501;49.926;8.404;2023-08-06T11:17:45;0.85;;;0.28;;
16766;SDS011;8501;49.926;8.404;2023-08-06T11:20:11;0.30;;;0.30;;
16766;SDS011;8501;49.926;8.404;2023-08-06T11:22:37;0.85;;;0.35;;
16766;SDS011;8501;49.926;8.404;2023-08-06T11:25:04;0.32;;;0.30;;
16766;SDS011;8501;49.926;8.404;2023-08-06T11:27:30;1.17;;;0.30;;
16766;SDS011;8501;49.926;8.404;2023-08-06T11:29:56;1.20;;;0.30;;
16766;SDS011;8501;49.926;8.404;2023-08-06T11:32:22;0.68;;;0.30;;
16766;SDS011;8501;49.926;8.404;2023-08-06T11:34:47;0.40;;;0.40;;
16766;SDS011;8501;49.926;8.404;2023-08-06T11:37:13;0.40;;;0.40;;
16766;SDS011;8501;49.926;8.404;2023-08-06T11:39:39;0.40;;;0.40;;
16766;SDS011;8501;49.926;8.404;2023-08-06T11:42:11;0.30;;;0.30;;
16766;SDS011;8501;49.926;8.404;2023-08-06T11:44:37;0.40;;;0.32;;
16766;SDS011;8501;49.926;8.404;2023-08-06T11:47:03;0.60;;;0.40;;
16766;SDS011;8501;49.926;8.404;2023-08-06T11:49:46;1.40;;;0.50;;
16766;SDS011;8501;49.926;8.404;2023-08-06T11:52:14;0.98;;;0.60;;
16766;SDS011;8501;49.926;8.404;2023-08-06T11:54:44;0.55;;;0.50;;
16766;SDS011;8501;49.926;8.404;2023-08-06T11:57:37;1.75;;;0.50;;
16766;SDS011;8501;49.926;8.404;2023-08-06T12:00:08;3.33;;;0.50;;
16766;SDS011;8501;49.926;8.404;2023-08-06T12:02:36;1.08;;;0.40;;
16766;SDS011;8501;49.926;8.404;2023-08-06T12:07:30;0.77;;;0.65;;
16766;SDS011;8501;49.926;8.404;2023-08-06T12:09:57;1.10;;;0.68;;
16766;SDS011;8501;49.926;8.404;2023-08-06T12:12:23;1.30;;;0.60;;
16766;SDS011;8501;49.926;8.404;2023-08-06T12:14:49;1.50;;;0.90;;
16766;SDS011;8501;49.926;8.404;2023-08-06T12:17:14;1.90;;;0.82;;
16766;SDS011;8501;49.926;8.404;2023-08-06T12:19:40;0.80;;;0.80;;
16766;SDS011;8501;49.926;8.404;2023-08-06T12:22:06;0.68;;;0.63;;
16766;SDS011;8501;49.926;8.404;2023-08-06T12:24:31;2.20;;;0.90;;
16766;SDS011;8501;49.926;8.404;2023-08-06T12:26:57;1.10;;;0.70;;
16766;SDS011;8501;49.926;8.404;2023-08-06T12:29:23;1.23;;;0.80;;
16766;SDS011;8501;49.926;8.404;2023-08-06T12:31:50;0.80;;;0.80;;
16766;SDS011;8501;49.926;8.404;2023-08-06T12:34:15;1.25;;;0.95;;
16766;SDS011;8501;49.926;8.404;2023-08-06T12:36:41;1.20;;;1.05;;
16766;SDS011;8501;49.926;8.404;2023-08-06T12:39:06;1.63;;;0.90;;
16766;SDS011;8501;49.926;8.404;2023-08-06T12:41:32;1.67;;;1.00;;
16766;SDS011;8501;49.926;8.404;2023-08-06T12:43:57;0.95;;;0.73;;
16766;SDS011;8501;49.926;8.404;2023-08-06T12:46:23;0.90;;;0.90;;
16766;SDS011;8501;49.926;8.404;2023-08-06T12:48:48;1.10;;;1.00;;
16766;SDS011;8501;49.926;8.404;2023-08-06T12:51:14;1.70;;;0.80;;
16766;SDS011;8501;49.926;8.404;2023-08-06T12:53:39;1.25;;;1.00;;
16766;SDS011;8501;49.926;8.404;2023-08-06T12:56:05;1.90;;;1.05;;
16766;SDS011;8501;49.926;8.404;2023-08-06T12:58:30;1.65;;;1.10;;
16766;SDS011;8501;49.926;8.404;2023-08-06T13:00:56;2.58;;;1.05;;
16766;SDS011;8501;49.926;8.404;2023-08-06T13:03:22;1.88;;;1.17;;
16766;SDS011;8501;49.926;8.404;2023-08-06T13:05:47;1.13;;;1.02;;
16766;SDS011;8501;49.926;8.404;2023-08-06T13:08:13;1.33;;;1.00;;
16766;SDS011;8501;49.926;8.404;2023-08-06T13:10:38;1.35;;;1.00;;
16766;SDS011;8501;49.926;8.404;2023-08-06T13:13:04;1.20;;;1.10;;
16766;SDS011;8501;49.926;8.404;2023-08-06T13:15:30;2.15;;;1.00;;
16766;SDS011;8501;49.926;8.404;2023-08-06T13:17:55;2.45;;;1.10;;
16766;SDS011;8501;49.926;8.404;2023-08-06T13:20:21;1.10;;;1.00;;
16766;SDS011;8501;49.926;8.404;2023-08-06T13:22:48;1.45;;;1.10;;
16766;SDS011;8501;49.926;8.404;2023-08-06T13:25:15;1.88;;;1.20;;
16766;SDS011;8501;49.926;8.404;2023-08-06T13:27:42;1.98;;;1.13;;
16766;SDS011;8501;49.926;8.404;2023-08-06T13:30:09;1.50;;;1.08;;
16766;SDS011;8501;49.926;8.404;2023-08-06T13:32:35;2.13;;;0.90;;
16766;SDS011;8501;49.926;8.404;2023-08-06T13:35:02;3.00;;;0.93;;
16766;SDS011;8501;49.926;8.404;2023-08-06T13:37:29;1.05;;;0.70;;
16766;SDS011;8501;49.926;8.404;2023-08-06T13:39:54;0.52;;;0.52;;
16766;SDS011;8501;49.926;8.404;2023-08-06T13:42:20;2.53;;;0.80;;
16766;SDS011;8501;49.926;8.404;2023-08-06T13:44:45;0.90;;;0.70;;
16766;SDS011;8501;49.926;8.404;2023-08-06T13:47:11;3.08;;;0.60;;
16766;SDS011;8501;49.926;8.404;2023-08-06T13:49:37;0.93;;;0.60;;
16766;SDS011;8501;49.926;8.404;2023-08-06T13:52:02;0.95;;;0.55;;
16766;SDS011;8501;49.926;8.404;2023-08-06T13:54:28;2.40;;;0.60;;
16766;SDS011;8501;49.926;8.404;2023-08-06T13:56:53;0.82;;;0.68;;
16766;SDS011;8501;49.926;8.404;2023-08-06T13:59:19;1.75;;;0.70;;
16766;SDS011;8501;49.926;8.404;2023-08-06T14:01:45;1.38;;;0.77;;
16766;SDS011;8501;49.926;8.404;2023-08-06T14:04:10;1.88;;;0.52;;
16766;SDS011;8501;49.926;8.404;2023-08-06T14:06:37;1.42;;;0.80;;
16766;SDS011;8501;49.926;8.404;2023-08-06T14:09:02;2.28;;;0.80;;
16766;SDS011;8501;49.926;8.404;2023-08-06T14:11:29;1.10;;;0.80;;
16766;SDS011;8501;49.926;8.404;2023-08-06T14:13:54;0.80;;;0.60;;
16766;SDS011;8501;49.926;8.404;2023-08-06T14:16:20;1.00;;;0.60;;
16766;SDS011;8501;49.926;8.404;2023-08-06T14:18:46;0.80;;;0.45;;
16766;SDS011;8501;49.926;8.404;2023-08-06T14:21:11;2.00;;;0.50;;
16766;SDS011;8501;49.926;8.404;2023-08-06T14:23:37;1.38;;;0.80;;
16766;SDS011;8501;49.926;8.404;2023-08-06T14:26:02;1.45;;;0.68;;
16766;SDS011;8501;49.926;8.404;2023-08-06T14:28:28;1.23;;;0.85;;
16766;SDS011;8501;49.926;8.404;2023-08-06T14:30:53;0.60;;;0.60;;
16766;SDS011;8501;49.926;8.404;2023-08-06T14:33:19;1.13;;;0.60;;
16766;SDS011;8501;49.926;8.404;2023-08-06T14:35:45;0.60;;;0.60;;
16766;SDS011;8501;49.926;8.404;2023-08-06T14:38:10;0.70;;;0.70;;
16766;SDS011;8501;49.926;8.404;2023-08-06T14:40:36;0.90;;;0.70;;
16766;SDS011;8501;49.926;8.404;2023-08-06T14:43:03;0.60;;;0.60;;
16766;SDS011;8501;49.926;8.404;2023-08-06T14:45:32;1.42;;;0.70;;
16766;SDS011;8501;49.926;8.404;2023-08-06T14:47:57;0.73;;;0.52;;
16766;SDS011;8501;49.926;8.404;2023-08-06T14:50:23;0.70;;;0.60;;
16766;SDS011;8501;49.926;8.404;2023-08-06T14:52:49;1.55;;;0.50;;
16766;SDS011;8501;49.926;8.404;2023-08-06T14:55:17;1.20;;;0.40;;
16766;SDS011;8501;49.926;8.404;2023-08-06T14:57:50;0.68;;;0.52;;
16766;SDS011;8501;49.926;8.404;2023-08-06T15:00:16;1.00;;;0.45;;
16766;SDS011;8501;49.926;8.404;2023-08-06T15:02:42;0.88;;;0.60;;
16766;SDS011;8501;49.926;8.404;2023-08-06T15:05:07;0.80;;;0.65;;
16766;SDS011;8501;49.926;8.404;2023-08-06T15:07:33;0.50;;;0.50;;